الصفحة الرئيسية
METAR-TAF:

METAR-TAF

مطار :

Nampula, موزمبيق

دائرة عرض: 15-06S, خط طول: 039-17E, ارتفاع: 438 متر

مراقبة الطقس الحالي

تاريخ ووقت الإصدار 4ساعات و 2 دقيقة قبل الساعة 20:00UTC
ريح 7 عقدة من الجنوب
درجة الحرارة 20°درجة مئوية
الرطوبة 78%
ضغط 1022 hPa
الرؤية 10 كم أو أكثر
غيوم قليلة على ارتفاع 2000 قدم

METAR: FQNP 242000Z 19007KT 9999 FEW020 20/16 Q1022

زمن: 02:02 (00:02 UTC)

توقعات

تاريخ ووقت الإصدار 8ساعات و 2 دقيقة قبل الساعة 16:00UTC
التوقعات صالحة من24 الساعة 18 UTC إلى 25 الساعة 18 UTC
ريح 8 عقدة من الجنوب
الرؤية 10 كم أو أكثر
غيوم متفرقة على ارتفاع 2000 قدم
أصبح
من 25 الساعة 00 UTC إلى 25 الساعة 02 UTC
ريح 8 عقدة من الغرب/الجنوب الغربي
أصبح
من 25 الساعة 12 UTC إلى 25 الساعة 14 UTC
ريح 10 عقدة من الجنوب تتزايد حتى 20 عقدة

TAF: FQNP 241600Z 2418/2518 18008KT 9999 SCT020 TX28/2513Z TN17/2502Z BECMG 2500/2502 24008KT BECMG 2512/2514 18010G20KT

أرصاد الطقس والتوقعات من أكثر من 4000 مطار (تقارير الطقس للمطار METAR والتنبؤ بالطقس بالمطارTAF).

المحطات المتاحة هي النقط الصفراء والحمراء على الخريطة.

حرك المؤشر فوق النقطة لمعرفة اسم المحطة.

ثم انقر لمعرفة أرصاد وتوقعات الطقس.

لتغيير الخارطة: اضغط على الأزرار الخضراء مع رمز الصليب الأسود للتكبير. على الزر الأخضر مع شرطة للتصغير، أو على الأسهم الخضراء للخرائط المجاورة.


METAR-TAF: